Time;durP1;ratioP1;P1;durP2;ratioP2;P2;SDS_P1;SDS_P2;PMS_P1;PMS_P2;Temp;Humidity;BMP_temperature;BMP_pressure;BME280_temperature;BME280_humidity;BME280_pressure;Samples;Min_cycle;Max_cycle;Signal;HPM_P1;HPM_P2
2024/03/03 00:00:24;;;;;;;0.80;0.80;;;7.70;99.90;;;;;;6156162;23;20206;-89
2024/03/03 00:02:53;;;;;;;1.47;1.33;;;7.70;99.90;;;;;;6142967;23;20178;-88
2024/03/03 00:05:19;;;;;;;0.83;0.83;;;7.80;99.90;;;;;;6136250;23;20170;-88
2024/03/03 00:07:48;;;;;;;0.63;0.63;;;7.90;99.90;;;;;;6157184;23;20727;-89
2024/03/03 00:10:14;;;;;;;1.47;1.37;;;7.70;99.90;;;;;;6157031;23;20198;-88
2024/03/03 00:12:39;;;;;;;1.30;1.20;;;7.60;99.90;;;;;;6156684;23;20202;-87
2024/03/03 00:15:08;;;;;;;1.20;0.90;;;7.70;99.90;;;;;;6156606;23;20198;-89
2024/03/03 00:17:34;;;;;;;0.80;0.80;;;7.80;99.90;;;;;;6156726;23;20209;-88
2024/03/03 00:19:59;;;;;;;4.23;1.03;;;7.80;99.90;;;;;;6155084;23;20207;-88
2024/03/03 00:22:25;;;;;;;2.73;1.93;;;7.80;99.90;;;;;;6181032;23;20552;-89
2024/03/03 00:24:51;;;;;;;0.73;0.73;;;8.00;99.90;;;;;;6156504;23;20199;-88
2024/03/03 00:27:17;;;;;;;2.27;1.50;;;8.00;99.90;;;;;;6156540;23;21192;-89
2024/03/03 00:29:42;;;;;;;2.40;1.30;;;8.00;99.90;;;;;;6156970;23;20238;-89
2024/03/03 00:32:08;;;;;;;0.57;0.57;;;8.00;99.90;;;;;;6157355;23;20177;-89
2024/03/03 00:34:35;;;;;;;1.30;1.27;;;8.00;99.90;;;;;;6156156;23;20206;-87
2024/03/03 00:37:01;;;;;;;0.80;0.80;;;8.00;99.90;;;;;;6156632;23;20206;-88
2024/03/03 00:39:27;;;;;;;3.03;1.30;;;8.10;99.90;;;;;;6156372;23;20668;-88
2024/03/03 00:41:52;;;;;;;0.70;0.70;;;8.10;99.90;;;;;;6156796;23;20503;-89
2024/03/03 00:44:18;;;;;;;0.83;0.83;;;8.20;99.90;;;;;;6157243;23;20175;-88
2024/03/03 00:46:46;;;;;;;0.63;0.63;;;8.30;99.90;;;;;;6156926;23;20639;-89
2024/03/03 00:49:13;;;;;;;2.40;1.80;;;8.40;99.90;;;;;;6159115;23;20214;-89
2024/03/03 00:51:39;;;;;;;2.37;1.47;;;8.60;99.90;;;;;;6183070;23;20528;-88
2024/03/03 00:54:05;;;;;;;1.70;1.03;;;8.60;99.90;;;;;;6158390;23;20524;-89
2024/03/03 00:56:31;;;;;;;0.70;0.70;;;8.70;99.90;;;;;;6183355;23;20289;-89
2024/03/03 00:58:57;;;;;;;0.77;0.77;;;8.70;99.90;;;;;;6157948;23;20203;-89
2024/03/03 01:01:22;;;;;;;2.33;1.00;;;8.80;99.90;;;;;;6158942;23;20202;-88
2024/03/03 01:03:48;;;;;;;1.27;1.27;;;8.80;99.90;;;;;;6159648;23;20195;-89
2024/03/03 01:06:14;;;;;;;1.23;1.17;;;8.90;99.90;;;;;;6159867;23;20199;-88
2024/03/03 01:08:40;;;;;;;1.17;1.17;;;8.80;99.90;;;;;;6160136;23;20555;-88
2024/03/03 01:11:06;;;;;;;1.70;1.33;;;8.90;99.90;;;;;;6160267;23;20241;-88
2024/03/03 01:13:31;;;;;;;0.40;0.40;;;8.90;99.90;;;;;;6158897;23;20290;-88
2024/03/03 01:15:57;;;;;;;1.90;1.67;;;9.00;99.90;;;;;;6159376;23;20206;-88
2024/03/03 01:18:23;;;;;;;0.70;0.70;;;9.10;99.90;;;;;;6158674;23;20652;-88
2024/03/03 01:20:49;;;;;;;1.43;1.27;;;9.10;99.90;;;;;;6158736;23;20198;-89
2024/03/03 01:23:16;;;;;;;1.60;1.20;;;9.20;99.90;;;;;;6183234;23;20213;-89
2024/03/03 01:25:43;;;;;;;0.30;0.30;;;9.20;99.90;;;;;;6157196;23;20233;-90
2024/03/03 01:28:08;;;;;;;2.17;2.00;;;9.40;99.90;;;;;;6158167;23;20198;-88
2024/03/03 01:30:34;;;;;;;1.40;0.90;;;9.40;99.90;;;;;;6157705;23;20392;-88
2024/03/03 01:33:03;;;;;;;1.57;1.47;;;9.40;99.90;;;;;;6158045;23;20565;-88
2024/03/03 01:35:29;;;;;;;0.70;0.70;;;9.50;99.90;;;;;;6158427;23;20274;-89
2024/03/03 01:37:54;;;;;;;1.67;0.93;;;9.50;99.90;;;;;;6157379;23;20660;-88
2024/03/03 01:40:21;;;;;;;1.57;1.43;;;9.50;99.90;;;;;;6157066;23;20213;-90
2024/03/03 01:42:47;;;;;;;1.53;0.67;;;9.40;99.90;;;;;;6156911;23;20298;-88
2024/03/03 01:45:24;;;;;;;6.43;1.57;;;9.40;99.90;;;;;;6156074;23;20279;-88
2024/03/03 01:47:52;;;;;;;1.30;1.30;;;9.30;99.90;;;;;;6181169;23;20702;-89
2024/03/03 01:50:19;;;;;;;0.97;0.97;;;9.20;99.90;;;;;;6157549;23;20178;-88
2024/03/03 01:52:48;;;;;;;3.57;1.60;;;9.20;99.90;;;;;;6156204;23;20217;-87
2024/03/03 01:55:20;;;;;;;4.00;1.80;;;9.20;99.90;;;;;;6180819;23;20219;-88
2024/03/03 01:57:46;;;;;;;5.17;1.50;;;9.20;99.90;;;;;;6181323;23;20238;-87
2024/03/03 02:00:13;;;;;;;0.77;0.77;;;9.10;99.90;;;;;;6156679;23;20206;-88
2024/03/03 02:02:40;;;;;;;1.90;1.70;;;9.20;99.90;;;;;;6156947;23;20175;-88
2024/03/03 02:05:08;;;;;;;6.63;1.83;;;9.20;99.90;;;;;;6157230;23;20213;-88
2024/03/03 02:07:34;;;;;;;2.27;1.87;;;9.20;99.90;;;;;;6181371;23;20230;-88
2024/03/03 02:10:00;;;;;;;0.83;0.83;;;9.20;99.90;;;;;;6156990;23;20202;-88
2024/03/03 02:12:28;;;;;;;0.67;0.67;;;9.10;99.90;;;;;;6156834;23;20202;-88
2024/03/03 02:14:54;;;;;;;1.63;1.53;;;9.10;99.90;;;;;;6181875;23;20182;-88
2024/03/03 02:17:20;;;;;;;1.13;1.10;;;9.20;99.90;;;;;;6182508;23;20162;-89
2024/03/03 02:19:46;;;;;;;1.60;1.50;;;9.20;99.90;;;;;;6156462;23;20671;-89
2024/03/03 02:22:12;;;;;;;1.63;1.47;;;9.10;99.90;;;;;;6180591;23;20199;-88
2024/03/03 02:24:37;;;;;;;0.70;0.70;;;9.10;99.90;;;;;;6156227;23;20198;-89
2024/03/03 02:27:04;;;;;;;1.40;1.30;;;9.10;99.90;;;;;;6181525;23;20195;-88
2024/03/03 02:29:30;;;;;;;1.20;0.77;;;9.00;99.90;;;;;;6182088;23;20480;-88
2024/03/03 02:31:58;;;;;;;3.83;2.20;;;8.90;99.90;;;;;;6155788;23;20213;-88
2024/03/03 02:34:28;;;;;;;1.80;1.70;;;8.80;99.90;;;;;;6180639;23;20262;-88
2024/03/03 02:36:54;;;;;;;1.67;1.57;;;8.60;99.90;;;;;;6180890;23;20538;-88
2024/03/03 02:39:20;;;;;;;2.17;1.87;;;8.50;99.90;;;;;;6155481;23;20285;-88
2024/03/03 02:41:46;;;;;;;2.67;1.17;;;8.50;99.90;;;;;;6156418;23;20246;-88
2024/03/03 02:44:12;;;;;;;2.10;1.90;;;8.50;99.90;;;;;;6156892;23;20898;-88
2024/03/03 02:46:37;;;;;;;1.80;1.70;;;8.60;99.90;;;;;;6155870;23;20282;-89
2024/03/03 02:49:03;;;;;;;1.83;1.20;;;8.60;99.90;;;;;;6155973;23;20233;-88
2024/03/03 02:51:29;;;;;;;2.20;1.77;;;8.70;99.90;;;;;;6155907;23;20875;-87
2024/03/03 02:53:55;;;;;;;1.30;1.20;;;8.70;99.90;;;;;;6155964;23;20228;-90
2024/03/03 02:56:24;;;;;;;1.57;1.47;;;8.70;99.90;;;;;;6156123;23;20278;-87
2024/03/03 02:58:49;;;;;;;1.23;1.13;;;8.80;99.90;;;;;;6155846;23;20234;-88
2024/03/03 03:01:15;;;;;;;2.43;1.87;;;8.80;99.90;;;;;;6155391;23;20206;-87
2024/03/03 03:03:41;;;;;;;2.20;1.03;;;8.90;99.90;;;;;;6155236;23;20218;-88
2024/03/03 03:06:07;;;;;;;1.77;1.43;;;9.00;99.90;;;;;;6155384;23;20194;-88
2024/03/03 03:08:33;;;;;;;1.17;1.07;;;9.00;99.90;;;;;;6156388;23;20171;-88
2024/03/03 03:10:59;;;;;;;1.10;1.10;;;9.10;99.90;;;;;;6155396;23;20584;-88
2024/03/03 03:13:25;;;;;;;1.50;1.23;;;9.10;99.90;;;;;;6155914;23;20472;-89
2024/03/03 03:15:50;;;;;;;1.17;1.07;;;9.00;99.90;;;;;;6156671;23;20222;-88
2024/03/03 03:18:17;;;;;;;2.17;1.60;;;9.10;99.90;;;;;;6180955;23;20643;-88
2024/03/03 03:20:42;;;;;;;1.43;1.33;;;9.10;99.90;;;;;;6156606;23;20299;-88
2024/03/03 03:23:09;;;;;;;2.23;2.03;;;9.10;99.90;;;;;;6156932;23;20171;-88
2024/03/03 03:25:35;;;;;;;0.73;0.73;;;9.20;99.90;;;;;;6155656;23;20206;-88
2024/03/03 03:28:00;;;;;;;1.00;1.00;;;9.10;99.90;;;;;;6156069;23;20198;-88
2024/03/03 03:30:26;;;;;;;6.00;1.53;;;9.10;99.90;;;;;;6155559;23;20202;-88
2024/03/03 03:32:52;;;;;;;1.77;1.67;;;9.10;99.90;;;;;;6155692;23;20272;-88
2024/03/03 03:35:21;;;;;;;2.37;2.17;;;9.10;99.90;;;;;;6157900;23;20163;-88
2024/03/03 03:37:47;;;;;;;1.43;1.30;;;9.00;99.90;;;;;;6157686;23;20202;-88
2024/03/03 03:40:13;;;;;;;1.43;1.33;;;8.90;99.90;;;;;;6181389;23;20206;-88
2024/03/03 03:42:40;;;;;;;1.43;1.23;;;8.90;99.90;;;;;;6157101;23;20205;-89
2024/03/03 03:45:06;;;;;;;2.00;1.80;;;8.80;99.90;;;;;;6182251;23;20194;-88
2024/03/03 03:47:32;;;;;;;3.87;2.33;;;8.80;99.90;;;;;;6157939;23;20178;-89
2024/03/03 03:50:01;;;;;;;2.20;2.03;;;8.70;99.90;;;;;;6156687;23;20226;-90
2024/03/03 03:52:28;;;;;;;1.63;1.50;;;8.70;99.90;;;;;;6156547;23;20273;-88
2024/03/03 03:54:53;;;;;;;1.57;1.47;;;8.70;99.90;;;;;;6156381;23;20214;-88
2024/03/03 03:57:19;;;;;;;1.13;1.00;;;8.60;99.90;;;;;;6156679;23;20534;-88
2024/03/03 03:59:45;;;;;;;3.40;2.03;;;8.50;99.90;;;;;;6155889;23;20205;-88
2024/03/03 04:02:11;;;;;;;1.20;1.20;;;8.40;99.90;;;;;;6157091;23;20182;-88
2024/03/03 04:04:37;;;;;;;1.90;1.77;;;8.40;99.90;;;;;;6155703;23;20222;-88
2024/03/03 04:07:04;;;;;;;2.73;2.37;;;8.40;99.90;;;;;;6155424;23;20198;-87
2024/03/03 04:09:33;;;;;;;5.30;2.60;;;8.40;99.90;;;;;;6179762;23;20289;-88
2024/03/03 04:11:59;;;;;;;4.10;2.50;;;8.50;99.90;;;;;;6179403;23;20205;-88
2024/03/03 04:14:25;;;;;;;3.70;2.50;;;8.60;99.90;;;;;;6155863;23;20179;-87
2024/03/03 04:16:51;;;;;;;2.77;2.13;;;8.60;99.90;;;;;;6155102;23;20206;-87
2024/03/03 04:19:17;;;;;;;6.63;2.97;;;8.70;99.90;;;;;;6155170;23;20299;-88
2024/03/03 04:21:43;;;;;;;7.40;1.70;;;8.60;99.90;;;;;;6155353;23;20235;-88
2024/03/03 04:24:10;;;;;;;3.10;2.90;;;8.60;99.90;;;;;;6180927;23;20256;-89
2024/03/03 04:26:37;;;;;;;3.60;1.97;;;8.50;99.90;;;;;;6182303;23;20171;-87
2024/03/03 04:29:03;;;;;;;3.23;0.93;;;8.50;99.90;;;;;;6182309;23;20241;-88
2024/03/03 04:31:29;;;;;;;2.57;2.37;;;8.30;99.90;;;;;;6182137;23;20285;-89
2024/03/03 04:33:55;;;;;;;2.97;2.80;;;8.10;99.90;;;;;;6157278;23;20198;-88
2024/03/03 04:36:21;;;;;;;3.83;2.30;;;8.10;99.90;;;;;;6157454;23;20195;-88
2024/03/03 04:38:47;;;;;;;3.03;2.83;;;8.10;99.90;;;;;;6156901;23;20170;-88
2024/03/03 04:41:17;;;;;;;1.67;1.57;;;8.20;99.90;;;;;;6158061;23;20174;-90
2024/03/03 04:43:43;;;;;;;3.27;2.33;;;8.00;99.90;;;;;;6156970;23;20222;-88
2024/03/03 04:46:09;;;;;;;5.97;2.97;;;7.90;99.90;;;;;;6156692;23;20213;-90
2024/03/03 04:48:36;;;;;;;3.80;3.40;;;7.70;99.90;;;;;;6181748;23;20214;-88
2024/03/03 04:51:02;;;;;;;3.63;2.03;;;7.60;99.90;;;;;;6156386;23;20222;-88
2024/03/03 04:53:28;;;;;;;5.07;3.53;;;7.60;99.90;;;;;;6157829;23;20558;-87
2024/03/03 04:55:54;;;;;;;2.13;1.77;;;7.40;99.90;;;;;;6181482;23;20249;-88
2024/03/03 04:58:20;;;;;;;3.27;1.90;;;7.30;99.90;;;;;;6181150;23;20558;-88
2024/03/03 05:00:46;;;;;;;3.37;3.17;;;7.30;99.90;;;;;;6156224;23;20272;-90
2024/03/03 05:03:12;;;;;;;5.03;2.63;;;7.20;99.90;;;;;;6181581;23;20203;-88
2024/03/03 05:05:38;;;;;;;9.30;2.63;;;7.00;99.90;;;;;;6157155;23;20552;-89
2024/03/03 05:08:04;;;;;;;1.87;1.77;;;6.90;99.90;;;;;;6182862;23;20287;-88
2024/03/03 05:10:32;;;;;;;2.20;1.70;;;7.00;99.90;;;;;;6181026;23;20225;-89
2024/03/03 05:12:58;;;;;;;2.87;2.30;;;7.10;99.90;;;;;;6156153;23;20277;-89
2024/03/03 05:15:24;;;;;;;1.77;1.67;;;7.20;99.90;;;;;;6156601;23;20252;-89
2024/03/03 05:17:50;;;;;;;1.30;1.23;;;7.30;99.90;;;;;;6156866;23;20179;-89
2024/03/03 05:20:16;;;;;;;1.73;1.63;;;7.30;99.90;;;;;;6157734;23;20202;-89
2024/03/03 05:22:42;;;;;;;5.57;1.70;;;7.30;99.90;;;;;;6181327;23;20281;-89
2024/03/03 05:25:10;;;;;;;1.97;1.80;;;7.40;99.90;;;;;;6156623;23;20505;-89
2024/03/03 05:27:36;;;;;;;3.60;2.37;;;7.50;99.90;;;;;;6156035;23;20250;-87
2024/03/03 05:30:03;;;;;;;1.53;1.43;;;7.30;99.90;;;;;;6156491;23;20273;-88
2024/03/03 05:32:29;;;;;;;2.33;2.23;;;7.40;99.90;;;;;;6156995;23;20166;-88
2024/03/03 05:34:54;;;;;;;7.27;2.13;;;7.40;99.90;;;;;;6180859;23;20297;-89
2024/03/03 05:37:20;;;;;;;3.60;3.33;;;7.50;99.90;;;;;;6157138;23;20239;-88
2024/03/03 05:39:49;;;;;;;1.70;1.23;;;7.50;99.90;;;;;;6157285;23;20248;-89
2024/03/03 05:42:15;;;;;;;4.80;2.43;;;7.40;99.90;;;;;;6157732;23;20213;-89
2024/03/03 05:44:40;;;;;;;2.07;1.93;;;7.40;99.90;;;;;;6157745;23;20171;-89
2024/03/03 05:47:06;;;;;;;1.53;1.43;;;7.50;99.90;;;;;;6158462;23;20163;-89
2024/03/03 05:49:36;;;;;;;2.37;2.07;;;7.50;99.90;;;;;;6158258;23;20268;-89
2024/03/03 05:52:02;;;;;;;2.27;2.07;;;7.40;99.90;;;;;;6159023;23;20202;-89
2024/03/03 05:54:28;;;;;;;3.43;2.30;;;7.50;99.90;;;;;;6182448;23;20194;-89
2024/03/03 05:56:54;;;;;;;3.13;2.47;;;7.50;99.90;;;;;;6157380;23;20167;-88
2024/03/03 05:59:20;;;;;;;2.47;1.33;;;7.50;99.90;;;;;;6157551;23;20199;-88
2024/03/03 06:01:48;;;;;;;1.37;1.30;;;7.60;99.90;;;;;;6180990;23;20229;-88
2024/03/03 06:04:18;;;;;;;1.73;1.60;;;7.70;99.90;;;;;;6155938;23;20285;-88
2024/03/03 06:06:44;;;;;;;1.83;1.77;;;7.60;99.90;;;;;;6156306;23;20277;-89
2024/03/03 06:09:12;;;;;;;0.90;0.90;;;7.70;99.90;;;;;;6156556;23;20195;-89
2024/03/03 06:11:42;;;;;;;3.00;2.80;;;7.60;99.90;;;;;;6156632;23;20265;-89
2024/03/03 06:14:11;;;;;;;1.13;1.03;;;7.60;99.90;;;;;;6156249;23;20186;-89
2024/03/03 06:16:38;;;;;;;4.53;1.33;;;7.70;99.90;;;;;;6179896;23;20198;-88
2024/03/03 06:19:04;;;;;;;7.07;3.13;;;7.60;99.90;;;;;;6155766;23;20194;-88
2024/03/03 06:21:31;;;;;;;2.00;1.90;;;7.70;99.90;;;;;;6156106;23;20207;-90
2024/03/03 06:23:57;;;;;;;2.90;2.20;;;7.60;99.90;;;;;;6181035;23;20171;-89
2024/03/03 06:26:31;;;;;;;3.00;1.37;;;7.70;99.90;;;;;;6156717;23;20596;-89
2024/03/03 06:28:57;;;;;;;1.63;1.57;;;7.70;99.90;;;;;;6158026;23;20194;-89
2024/03/03 06:31:23;;;;;;;1.93;1.70;;;7.70;99.90;;;;;;6156281;23;20345;-88
2024/03/03 06:33:49;;;;;;;3.30;2.60;;;7.70;99.90;;;;;;6158487;23;20210;-88
2024/03/03 06:36:17;;;;;;;3.53;2.47;;;7.80;99.90;;;;;;6183137;23;20198;-88
2024/03/03 06:38:43;;;;;;;4.77;2.73;;;7.70;99.90;;;;;;6183238;23;20167;-88
2024/03/03 06:41:10;;;;;;;1.07;0.93;;;7.60;99.90;;;;;;6159008;23;20245;-89
2024/03/03 06:43:36;;;;;;;1.73;1.63;;;7.50;99.90;;;;;;6156891;23;20289;-88
2024/03/03 06:46:02;;;;;;;1.37;1.37;;;7.40;99.90;;;;;;6156856;23;20222;-88
2024/03/03 06:48:30;;;;;;;3.27;3.07;;;7.40;99.90;;;;;;6156516;23;20270;-89
2024/03/03 06:50:56;;;;;;;1.73;1.63;;;7.30;99.90;;;;;;6156835;23;20175;-88
2024/03/03 06:53:22;;;;;;;3.40;1.90;;;7.30;99.90;;;;;;6157241;23;20174;-88
2024/03/03 06:55:48;;;;;;;1.40;1.33;;;7.30;99.90;;;;;;6155385;23;20221;-88
2024/03/03 06:58:14;;;;;;;1.90;1.80;;;7.30;99.90;;;;;;6156235;23;20214;-89
2024/03/03 07:00:39;;;;;;;1.90;1.77;;;7.40;99.90;;;;;;6156001;23;20210;-89
2024/03/03 07:05:34;;;;;;;1.63;1.53;;;7.30;99.90;;;;;;6180619;23;20686;-89
2024/03/03 07:08:02;;;;;;;1.40;1.20;;;7.30;99.90;;;;;;6155506;23;20281;-88
2024/03/03 07:10:30;;;;;;;1.13;1.03;;;7.40;99.90;;;;;;6178677;23;20284;-88
2024/03/03 07:12:56;;;;;;;2.30;2.00;;;7.50;99.90;;;;;;6155110;23;20593;-89
2024/03/03 07:15:22;;;;;;;4.23;2.30;;;7.40;99.90;;;;;;6154259;23;20198;-88
2024/03/03 07:17:49;;;;;;;3.37;2.50;;;7.50;99.90;;;;;;6155156;23;20190;-89
2024/03/03 07:20:18;;;;;;;4.17;2.57;;;7.50;99.90;;;;;;6155459;23;20203;-90
2024/03/03 07:22:43;;;;;;;3.40;2.03;;;7.50;99.90;;;;;;6180776;23;20202;-89
2024/03/03 07:25:10;;;;;;;1.67;1.40;;;7.70;99.90;;;;;;6180437;23;20573;-89
2024/03/03 07:27:38;;;;;;;1.37;1.37;;;7.70;99.90;;;;;;6154664;23;20217;-87
2024/03/03 07:30:11;;;;;;;11.03;2.37;;;7.70;99.90;;;;;;6155590;23;20198;-87
2024/03/03 07:32:40;;;;;;;1.50;1.47;;;7.60;99.90;;;;;;6179696;23;20158;-88
2024/03/03 07:35:06;;;;;;;2.87;2.63;;;7.70;99.90;;;;;;6179780;23;20588;-88
2024/03/03 07:37:32;;;;;;;2.20;2.07;;;7.70;99.90;;;;;;6153257;23;20288;-89
2024/03/03 07:39:58;;;;;;;0.93;0.90;;;7.80;99.90;;;;;;6149884;23;20218;-89
2024/03/03 07:42:23;;;;;;;1.57;1.47;;;7.80;99.90;;;;;;6153978;23;20197;-88
2024/03/03 07:44:49;;;;;;;1.70;1.60;;;8.00;99.90;;;;;;6154580;23;20182;-88
2024/03/03 07:47:15;;;;;;;5.30;2.73;;;8.00;99.90;;;;;;6180061;23;20188;-88
2024/03/03 07:49:42;;;;;;;7.90;3.33;;;8.10;99.90;;;;;;6155105;23;20198;-88
2024/03/03 07:52:08;;;;;;;2.20;2.00;;;8.10;99.90;;;;;;6155894;23;20202;-88
2024/03/03 07:54:34;;;;;;;2.80;2.60;;;8.20;99.90;;;;;;6153910;23;20203;-87
2024/03/03 07:57:00;;;;;;;4.57;4.07;;;8.20;99.90;;;;;;6155588;23;20532;-87
2024/03/03 07:59:27;;;;;;;2.83;2.63;;;8.20;99.90;;;;;;6157132;23;20675;-88
2024/03/03 08:01:52;;;;;;;2.37;2.13;;;8.30;99.90;;;;;;6155916;23;20194;-87
2024/03/03 08:04:20;;;;;;;3.20;2.27;;;8.40;99.90;;;;;;6155579;23;20661;-89
2024/03/03 08:06:47;;;;;;;2.50;2.40;;;8.30;99.90;;;;;;6156229;23;20202;-85
2024/03/03 08:09:12;;;;;;;4.73;3.70;;;8.40;99.90;;;;;;6153867;23;20201;-88
2024/03/03 08:11:38;;;;;;;2.67;2.13;;;8.50;99.90;;;;;;6156287;23;20178;-88
2024/03/03 08:14:04;;;;;;;3.00;1.37;;;8.50;99.90;;;;;;6156104;23;20228;-89
2024/03/03 08:16:36;;;;;;;2.83;2.10;;;8.60;99.90;;;;;;6155524;23;20202;-88
2024/03/03 08:19:02;;;;;;;2.00;1.90;;;8.70;99.90;;;;;;6157093;23;20202;-88
2024/03/03 08:21:28;;;;;;;2.90;2.57;;;8.80;99.90;;;;;;6181656;23;20203;-87
2024/03/03 08:23:53;;;;;;;4.50;2.03;;;9.00;99.90;;;;;;6156786;23;20175;-90
2024/03/03 08:26:19;;;;;;;2.70;2.50;;;9.00;99.90;;;;;;6157072;23;20171;-87
2024/03/03 08:28:46;;;;;;;2.23;2.13;;;9.20;99.90;;;;;;6155895;23;20203;-87
2024/03/03 08:31:13;;;;;;;3.20;2.90;;;9.30;99.90;;;;;;6155807;23;20230;-87
2024/03/03 08:33:39;;;;;;;2.97;1.73;;;9.40;99.90;;;;;;6156071;23;20222;-87
2024/03/03 08:36:06;;;;;;;1.80;1.70;;;9.50;99.90;;;;;;6156549;23;20205;-88
2024/03/03 08:38:34;;;;;;;2.83;2.63;;;9.50;99.90;;;;;;6156189;23;20214;-86
2024/03/03 08:40:59;;;;;;;2.17;1.90;;;9.60;99.90;;;;;;6154834;23;20215;-86
2024/03/03 08:43:25;;;;;;;2.47;2.33;;;9.60;99.90;;;;;;6154704;23;20214;-87
2024/03/03 08:45:51;;;;;;;5.17;2.40;;;9.60;99.90;;;;;;6155362;23;20609;-88
2024/03/03 08:48:17;;;;;;;5.07;2.57;;;9.50;99.90;;;;;;6155310;23;20198;-87
2024/03/03 08:50:45;;;;;;;2.07;1.87;;;9.50;99.90;;;;;;6155345;23;20233;-87
2024/03/03 08:53:10;;;;;;;2.43;2.23;;;9.40;99.90;;;;;;6155549;23;20627;-88
2024/03/03 08:55:36;;;;;;;1.60;1.17;;;9.40;99.90;;;;;;6154263;23;20218;-87
2024/03/03 08:58:02;;;;;;;1.87;1.77;;;9.40;99.90;;;;;;6155289;23;20672;-89
2024/03/03 09:00:28;;;;;;;6.77;2.07;;;9.30;99.90;;;;;;6155428;23;20221;-86
2024/03/03 09:02:54;;;;;;;1.30;1.30;;;9.30;99.90;;;;;;6155853;23;20171;-89
2024/03/03 09:05:20;;;;;;;2.07;1.87;;;9.40;99.90;;;;;;6156069;23;20171;-87
2024/03/03 09:07:45;;;;;;;2.80;2.40;;;9.40;99.90;;;;;;6155036;23;20265;-87
2024/03/03 09:10:11;;;;;;;1.47;1.40;;;9.50;99.90;;;;;;6156144;23;20213;-87
2024/03/03 09:12:37;;;;;;;3.40;3.00;;;9.60;99.90;;;;;;6155101;23;20240;-88
2024/03/03 09:15:03;;;;;;;5.27;3.43;;;9.70;99.90;;;;;;6155697;23;20203;-87
2024/03/03 09:17:29;;;;;;;4.67;3.90;;;9.80;99.90;;;;;;6156420;23;20175;-88
2024/03/03 09:19:55;;;;;;;3.27;3.03;;;9.90;99.90;;;;;;6180603;23;20310;-88
2024/03/03 09:22:23;;;;;;;4.37;3.20;;;10.10;99.90;;;;;;6156132;23;20203;-88
2024/03/03 09:24:49;;;;;;;3.10;1.77;;;10.20;99.90;;;;;;6156980;23;20229;-89
2024/03/03 09:27:17;;;;;;;2.20;2.07;;;10.30;99.90;;;;;;6157579;23;20205;-88
2024/03/03 09:29:42;;;;;;;9.03;4.07;;;10.40;99.90;;;;;;6158231;23;20178;-89
2024/03/03 09:32:08;;;;;;;8.30;3.20;;;10.60;99.90;;;;;;6157474;23;20547;-88
2024/03/03 09:34:34;;;;;;;4.83;3.43;;;10.60;99.90;;;;;;6156679;23;20205;-88
2024/03/03 09:37:00;;;;;;;2.23;2.03;;;10.70;99.90;;;;;;6156618;23;20213;-88
2024/03/03 09:39:29;;;;;;;2.83;2.20;;;10.70;99.90;;;;;;6155983;23;20338;-87
2024/03/03 09:41:57;;;;;;;2.97;2.47;;;10.80;99.90;;;;;;6181215;23;20249;-89
2024/03/03 09:44:27;;;;;;;2.83;2.63;;;11.00;99.90;;;;;;6156768;23;20258;-87
2024/03/03 09:46:53;;;;;;;3.23;2.97;;;11.20;99.90;;;;;;6180364;23;20202;-88
2024/03/03 09:49:23;;;;;;;3.40;3.00;;;11.40;99.90;;;;;;6180737;23;20217;-88
2024/03/03 09:51:52;;;;;;;4.50;3.30;;;11.50;99.90;;;;;;6180240;23;20206;-88
2024/03/03 09:54:19;;;;;;;3.63;3.17;;;11.60;99.90;;;;;;6180264;23;20198;-87
2024/03/03 09:56:49;;;;;;;3.03;1.97;;;11.70;99.90;;;;;;6180447;23;20234;-87
2024/03/03 09:59:16;;;;;;;4.10;2.73;;;11.60;99.90;;;;;;6181648;23;20159;-88
2024/03/03 10:01:55;;;;;;;2.50;2.30;;;11.60;99.90;;;;;;6155531;23;20586;-88
2024/03/03 10:04:22;;;;;;;4.60;3.30;;;11.60;99.90;;;;;;6156359;23;20246;-88
2024/03/03 10:06:51;;;;;;;2.20;1.90;;;11.80;99.90;;;;;;6155696;23;20322;-88
2024/03/03 10:09:18;;;;;;;3.73;3.43;;;11.80;99.90;;;;;;6156421;23;20245;-88
2024/03/03 10:11:44;;;;;;;7.87;3.57;;;11.80;99.90;;;;;;6156338;23;20354;-87
2024/03/03 10:14:12;;;;;;;2.77;2.57;;;11.80;99.90;;;;;;6156394;23;20170;-88
2024/03/03 10:16:38;;;;;;;4.13;3.73;;;11.80;99.90;;;;;;6156095;23;20214;-87
2024/03/03 10:19:07;;;;;;;5.53;3.30;;;11.80;99.90;;;;;;6154914;23;20209;-89
2024/03/03 10:21:35;;;;;;;5.87;4.20;;;11.80;99.90;;;;;;6156522;23;20479;-88
2024/03/03 10:24:20;;;;;;;16.17;4.40;;;11.80;99.90;;;;;;6180737;23;20278;-87
2024/03/03 10:26:46;;;;;;;5.10;2.87;;;11.90;99.90;;;;;;6180621;23;20700;-91
2024/03/03 10:29:12;;;;;;;4.47;3.50;;;12.00;99.90;;;;;;6156478;23;20229;-88
2024/03/03 10:31:38;;;;;;;8.40;3.30;;;12.20;99.90;;;;;;6155667;23;20198;-88
2024/03/03 10:34:04;;;;;;;3.33;3.03;;;12.70;99.90;;;;;;6155602;23;20207;-88
2024/03/03 10:36:32;;;;;;;7.13;4.53;;;13.40;99.90;;;;;;6155084;23;20250;-88
2024/03/03 10:38:58;;;;;;;4.30;3.57;;;13.40;99.90;;;;;;6180192;23;20612;-88
2024/03/03 10:41:24;;;;;;;5.97;3.77;;;13.30;99.90;;;;;;6155604;23;20262;-89
2024/03/03 10:43:50;;;;;;;7.30;3.43;;;13.20;99.90;;;;;;6154763;23;20201;-90
2024/03/03 10:46:19;;;;;;;5.37;3.33;;;13.30;99.90;;;;;;6154934;23;20211;-88
2024/03/03 10:48:45;;;;;;;6.00;3.63;;;13.30;99.90;;;;;;6154705;23;20595;-89
2024/03/03 10:51:18;;;;;;;4.20;3.60;;;13.30;99.90;;;;;;6155636;23;20280;-88
2024/03/03 10:53:44;;;;;;;4.17;2.43;;;13.30;99.90;;;;;;6180081;23;20155;-88
2024/03/03 10:56:11;;;;;;;5.63;3.07;;;13.20;99.90;;;;;;6156136;23;20237;-88
2024/03/03 10:58:38;;;;;;;5.10;3.83;;;13.20;99.90;;;;;;6180002;23;20679;-88
2024/03/03 11:01:05;;;;;;;7.17;3.27;;;13.10;99.90;;;;;;6155667;23;20213;-91
2024/03/03 11:03:32;;;;;;;3.77;3.27;;;13.10;99.90;;;;;;6156723;23;20207;-88
2024/03/03 11:05:59;;;;;;;5.83;3.17;;;13.10;99.90;;;;;;6156350;23;20624;-88
2024/03/03 11:08:26;;;;;;;6.20;3.77;;;13.00;99.90;;;;;;6156507;23;20713;-88
2024/03/03 11:11:02;;;;;;;6.73;3.97;;;13.10;99.90;;;;;;6155348;23;20199;-88
2024/03/03 11:13:31;;;;;;;3.47;3.20;;;13.50;99.90;;;;;;6179870;23;20210;-89
2024/03/03 11:16:02;;;;;;;2.87;2.63;;;13.80;99.90;;;;;;6179615;23;20530;-90
2024/03/03 11:18:32;;;;;;;5.20;3.13;;;14.00;99.90;;;;;;6180425;23;20664;-88
2024/03/03 11:21:14;;;;;;;7.93;3.90;;;13.90;99.90;;;;;;6179894;23;20320;-88
2024/03/03 11:23:56;;;;;;;7.63;3.03;;;14.00;99.90;;;;;;6179165;23;20155;-89
2024/03/03 11:26:27;;;;;;;4.70;3.00;;;14.00;99.90;;;;;;6180623;23;20161;-89
2024/03/03 11:28:57;;;;;;;6.80;3.30;;;14.50;99.90;;;;;;6180903;23;20277;-89
2024/03/03 11:31:24;;;;;;;5.67;4.43;;;14.40;99.90;;;;;;6178777;23;20209;-89
2024/03/03 11:33:52;;;;;;;4.57;4.17;;;14.60;99.90;;;;;;6179120;23;20208;-88
2024/03/03 11:36:19;;;;;;;5.30;3.07;;;14.60;99.90;;;;;;6154182;23;20265;-87
2024/03/03 11:38:45;;;;;;;10.53;5.00;;;14.30;99.90;;;;;;6153817;23;20175;-87
2024/03/03 11:41:12;;;;;;;5.97;4.43;;;14.00;99.90;;;;;;6153938;23;20230;-88
2024/03/03 11:43:42;;;;;;;7.20;4.40;;;13.90;99.90;;;;;;6178123;23;20206;-88
2024/03/03 11:46:09;;;;;;;3.50;3.00;;;14.30;99.90;;;;;;6178474;23;20199;-88
2024/03/03 11:48:35;;;;;;;5.43;3.90;;;14.50;99.90;;;;;;6153289;23;20244;-88
2024/03/03 11:51:24;;;;;;;6.73;4.33;;;14.50;99.90;;;;;;6151203;23;20265;-89
2024/03/03 11:54:06;;;;;;;5.33;4.07;;;14.50;99.90;;;;;;6154239;23;20202;-87
2024/03/03 11:56:53;;;;;;;5.57;4.57;;;14.60;99.90;;;;;;6129932;23;20206;-88
2024/03/03 11:59:19;;;;;;;5.37;4.17;;;14.40;99.90;;;;;;6179175;23;20499;-87
2024/03/03 12:01:53;;;;;;;4.07;3.50;;;14.40;99.90;;;;;;6151473;23;20202;-89
2024/03/03 12:04:19;;;;;;;7.20;3.60;;;14.10;99.90;;;;;;6178710;23;20277;-88
2024/03/03 12:06:45;;;;;;;3.73;3.03;;;14.00;99.90;;;;;;6154032;23;20234;-87
2024/03/03 12:09:12;;;;;;;7.17;4.50;;;14.10;99.90;;;;;;6154048;23;20207;-88
2024/03/03 12:11:42;;;;;;;4.00;3.60;;;14.10;99.90;;;;;;6179215;23;20175;-88
2024/03/03 12:14:08;;;;;;;7.77;4.43;;;14.10;99.90;;;;;;6179402;23;20775;-88
2024/03/03 12:16:33;;;;;;;10.13;3.87;;;14.30;99.90;;;;;;6154132;23;20252;-87
2024/03/03 12:19:02;;;;;;;4.40;3.67;;;14.40;99.90;;;;;;6154430;23;20194;-88
2024/03/03 12:21:28;;;;;;;5.33;3.30;;;14.50;99.90;;;;;;6153294;23;20229;-87
2024/03/03 12:24:23;;;;;;;4.87;3.27;;;14.50;99.90;;;;;;6134813;23;20634;-87
2024/03/03 12:26:51;;;;;;;7.97;4.37;;;14.50;99.90;;;;;;6177380;23;20228;-88
2024/03/03 12:29:59;;;;;;;5.40;3.83;;;14.50;99.90;;;;;;6179285;23;20170;-88
2024/03/03 12:32:28;;;;;;;6.13;4.27;;;14.50;99.90;;;;;;6178290;23;20186;-87
2024/03/03 12:34:58;;;;;;;7.00;3.73;;;14.50;99.90;;;;;;6154024;23;20207;-87
2024/03/03 12:37:24;;;;;;;5.80;4.33;;;14.40;99.90;;;;;;6154316;23;20233;-88
2024/03/03 12:40:19;;;;;;;4.83;3.70;;;14.50;99.90;;;;;;6153467;23;20261;-87
2024/03/03 12:42:49;;;;;;;6.87;4.23;;;14.50;99.90;;;;;;6158887;23;20719;-87
2024/03/03 12:45:15;;;;;;;5.53;4.60;;;14.50;99.90;;;;;;6180462;23;20191;-90
2024/03/03 12:47:42;;;;;;;5.77;4.63;;;14.90;99.90;;;;;;6155596;23;20171;-88
2024/03/03 12:50:18;;;;;;;4.00;3.20;;;15.10;99.90;;;;;;6156486;23;20175;-87
2024/03/03 12:52:45;;;;;;;7.53;5.80;;;15.10;99.90;;;;;;6179671;23;20206;-89
2024/03/03 12:55:12;;;;;;;10.27;4.90;;;15.00;99.90;;;;;;6180130;23;20225;-89